sensor_id;sensor_type;location;lat;lon;timestamp;P1;durP1;ratioP1;P2;durP2;ratioP2
36745;SDS011;22715;52.182;21.206;2022-12-18T00:02:37;28.20;;;13.80;;
36745;SDS011;22715;52.182;21.206;2022-12-18T00:07:32;29.33;;;13.95;;
36745;SDS011;22715;52.182;21.206;2022-12-18T00:09:58;24.83;;;11.65;;
36745;SDS011;22715;52.182;21.206;2022-12-18T00:12:26;26.40;;;12.75;;
36745;SDS011;22715;52.182;21.206;2022-12-18T00:14:52;26.25;;;12.23;;
36745;SDS011;22715;52.182;21.206;2022-12-18T00:17:18;25.38;;;13.90;;
36745;SDS011;22715;52.182;21.206;2022-12-18T00:19:43;30.45;;;14.88;;
36745;SDS011;22715;52.182;21.206;2022-12-18T00:22:09;26.88;;;15.38;;
36745;SDS011;22715;52.182;21.206;2022-12-18T00:24:34;27.75;;;14.18;;
36745;SDS011;22715;52.182;21.206;2022-12-18T00:26:59;25.40;;;13.10;;
36745;SDS011;22715;52.182;21.206;2022-12-18T00:29:25;23.08;;;12.73;;
36745;SDS011;22715;52.182;21.206;2022-12-18T00:31:50;30.25;;;11.82;;
36745;SDS011;22715;52.182;21.206;2022-12-18T00:34:15;29.50;;;14.43;;
36745;SDS011;22715;52.182;21.206;2022-12-18T00:36:41;30.05;;;13.43;;
36745;SDS011;22715;52.182;21.206;2022-12-18T00:39:07;26.63;;;15.18;;
36745;SDS011;22715;52.182;21.206;2022-12-18T00:41:32;27.73;;;13.60;;
36745;SDS011;22715;52.182;21.206;2022-12-18T00:44:17;28.40;;;17.08;;
36745;SDS011;22715;52.182;21.206;2022-12-18T00:46:43;23.88;;;14.07;;
36745;SDS011;22715;52.182;21.206;2022-12-18T00:49:08;27.85;;;14.10;;
36745;SDS011;22715;52.182;21.206;2022-12-18T00:51:34;24.63;;;13.48;;
36745;SDS011;22715;52.182;21.206;2022-12-18T00:53:59;27.05;;;14.15;;
36745;SDS011;22715;52.182;21.206;2022-12-18T00:56:25;24.13;;;12.80;;
36745;SDS011;22715;52.182;21.206;2022-12-18T00:58:51;32.33;;;16.58;;
36745;SDS011;22715;52.182;21.206;2022-12-18T01:01:17;28.08;;;15.05;;
36745;SDS011;22715;52.182;21.206;2022-12-18T01:03:43;28.40;;;14.75;;
36745;SDS011;22715;52.182;21.206;2022-12-18T01:06:10;26.30;;;14.63;;
36745;SDS011;22715;52.182;21.206;2022-12-18T01:08:36;30.08;;;12.45;;
36745;SDS011;22715;52.182;21.206;2022-12-18T01:11:09;26.15;;;14.40;;
36745;SDS011;22715;52.182;21.206;2022-12-18T01:13:35;26.77;;;13.02;;
36745;SDS011;22715;52.182;21.206;2022-12-18T01:16:01;29.48;;;13.73;;
36745;SDS011;22715;52.182;21.206;2022-12-18T01:18:28;21.92;;;11.32;;
36745;SDS011;22715;52.182;21.206;2022-12-18T01:20:53;22.23;;;12.30;;
36745;SDS011;22715;52.182;21.206;2022-12-18T01:23:18;26.48;;;12.88;;
36745;SDS011;22715;52.182;21.206;2022-12-18T01:25:49;22.00;;;10.10;;
36745;SDS011;22715;52.182;21.206;2022-12-18T01:28:17;19.60;;;11.38;;
36745;SDS011;22715;52.182;21.206;2022-12-18T01:30:42;20.55;;;12.02;;
36745;SDS011;22715;52.182;21.206;2022-12-18T01:33:08;20.10;;;10.32;;
36745;SDS011;22715;52.182;21.206;2022-12-18T01:35:40;20.70;;;9.68;;
36745;SDS011;22715;52.182;21.206;2022-12-18T01:38:06;20.98;;;11.60;;
36745;SDS011;22715;52.182;21.206;2022-12-18T01:40:31;19.65;;;10.85;;
36745;SDS011;22715;52.182;21.206;2022-12-18T01:42:56;21.73;;;11.48;;
36745;SDS011;22715;52.182;21.206;2022-12-18T01:47:55;24.40;;;10.70;;
36745;SDS011;22715;52.182;21.206;2022-12-18T01:50:22;24.35;;;13.00;;
36745;SDS011;22715;52.182;21.206;2022-12-18T01:52:52;22.88;;;12.27;;
36745;SDS011;22715;52.182;21.206;2022-12-18T01:55:19;23.27;;;11.05;;
36745;SDS011;22715;52.182;21.206;2022-12-18T01:57:46;21.27;;;12.68;;
36745;SDS011;22715;52.182;21.206;2022-12-18T02:00:14;20.55;;;10.75;;
36745;SDS011;22715;52.182;21.206;2022-12-18T02:02:40;21.98;;;12.07;;
36745;SDS011;22715;52.182;21.206;2022-12-18T02:05:07;22.90;;;11.40;;
36745;SDS011;22715;52.182;21.206;2022-12-18T02:07:44;22.17;;;10.93;;
36745;SDS011;22715;52.182;21.206;2022-12-18T02:10:19;23.83;;;9.73;;
36745;SDS011;22715;52.182;21.206;2022-12-18T02:12:56;22.83;;;10.38;;
36745;SDS011;22715;52.182;21.206;2022-12-18T02:15:26;19.67;;;9.80;;
36745;SDS011;22715;52.182;21.206;2022-12-18T02:20:57;23.23;;;13.80;;
36745;SDS011;22715;52.182;21.206;2022-12-18T02:26:22;21.20;;;10.60;;
36745;SDS011;22715;52.182;21.206;2022-12-18T02:31:40;20.90;;;10.90;;
36745;SDS011;22715;52.182;21.206;2022-12-18T02:34:07;21.23;;;9.75;;
36745;SDS011;22715;52.182;21.206;2022-12-18T02:36:33;19.08;;;10.60;;
36745;SDS011;22715;52.182;21.206;2022-12-18T02:39:00;20.33;;;9.98;;
36745;SDS011;22715;52.182;21.206;2022-12-18T02:41:26;18.27;;;10.13;;
36745;SDS011;22715;52.182;21.206;2022-12-18T02:44:01;17.90;;;10.23;;
36745;SDS011;22715;52.182;21.206;2022-12-18T02:46:28;20.60;;;11.88;;
36745;SDS011;22715;52.182;21.206;2022-12-18T02:48:55;19.40;;;11.05;;
36745;SDS011;22715;52.182;21.206;2022-12-18T02:51:25;19.23;;;10.55;;
36745;SDS011;22715;52.182;21.206;2022-12-18T02:54:09;19.55;;;9.63;;
36745;SDS011;22715;52.182;21.206;2022-12-18T02:56:38;17.08;;;7.78;;
36745;SDS011;22715;52.182;21.206;2022-12-18T02:59:13;18.20;;;9.65;;
36745;SDS011;22715;52.182;21.206;2022-12-18T03:01:52;13.45;;;9.73;;
36745;SDS011;22715;52.182;21.206;2022-12-18T03:06:56;15.23;;;8.43;;
36745;SDS011;22715;52.182;21.206;2022-12-18T03:11:51;17.50;;;7.87;;
36745;SDS011;22715;52.182;21.206;2022-12-18T03:14:37;16.80;;;9.25;;
36745;SDS011;22715;52.182;21.206;2022-12-18T03:17:05;18.10;;;8.48;;
36745;SDS011;22715;52.182;21.206;2022-12-18T03:19:36;17.02;;;9.35;;
36745;SDS011;22715;52.182;21.206;2022-12-18T03:22:04;15.23;;;8.05;;
36745;SDS011;22715;52.182;21.206;2022-12-18T03:24:31;16.65;;;7.05;;
36745;SDS011;22715;52.182;21.206;2022-12-18T03:27:18;15.52;;;8.88;;
36745;SDS011;22715;52.182;21.206;2022-12-18T03:29:43;15.77;;;8.00;;
36745;SDS011;22715;52.182;21.206;2022-12-18T03:32:21;15.23;;;7.57;;
36745;SDS011;22715;52.182;21.206;2022-12-18T03:34:49;12.18;;;7.13;;
36745;SDS011;22715;52.182;21.206;2022-12-18T03:37:16;13.68;;;9.23;;
36745;SDS011;22715;52.182;21.206;2022-12-18T03:39:44;14.32;;;7.80;;
36745;SDS011;22715;52.182;21.206;2022-12-18T03:43:10;17.30;;;9.20;;
36745;SDS011;22715;52.182;21.206;2022-12-18T03:45:09;21.75;;;8.88;;
36745;SDS011;22715;52.182;21.206;2022-12-18T03:47:57;14.27;;;8.13;;
36745;SDS011;22715;52.182;21.206;2022-12-18T03:53:08;18.65;;;8.00;;
36745;SDS011;22715;52.182;21.206;2022-12-18T03:55:34;18.52;;;8.40;;
36745;SDS011;22715;52.182;21.206;2022-12-18T03:58:02;15.57;;;7.18;;
36745;SDS011;22715;52.182;21.206;2022-12-18T04:00:29;16.27;;;8.68;;
36745;SDS011;22715;52.182;21.206;2022-12-18T04:02:56;13.32;;;6.00;;
36745;SDS011;22715;52.182;21.206;2022-12-18T04:05:22;17.38;;;7.05;;
36745;SDS011;22715;52.182;21.206;2022-12-18T04:08:02;18.25;;;9.45;;
36745;SDS011;22715;52.182;21.206;2022-12-18T04:10:28;9.88;;;6.47;;
36745;SDS011;22715;52.182;21.206;2022-12-18T04:12:57;13.65;;;6.82;;
36745;SDS011;22715;52.182;21.206;2022-12-18T04:15:22;14.65;;;6.68;;
36745;SDS011;22715;52.182;21.206;2022-12-18T04:17:48;13.27;;;6.10;;
36745;SDS011;22715;52.182;21.206;2022-12-18T04:20:16;15.73;;;7.07;;
36745;SDS011;22715;52.182;21.206;2022-12-18T04:22:42;13.25;;;6.88;;
36745;SDS011;22715;52.182;21.206;2022-12-18T04:25:07;15.77;;;6.93;;
36745;SDS011;22715;52.182;21.206;2022-12-18T04:27:33;14.23;;;7.18;;
36745;SDS011;22715;52.182;21.206;2022-12-18T04:29:59;14.13;;;7.10;;
36745;SDS011;22715;52.182;21.206;2022-12-18T04:32:24;12.93;;;7.45;;
36745;SDS011;22715;52.182;21.206;2022-12-18T04:34:51;16.83;;;7.00;;
36745;SDS011;22715;52.182;21.206;2022-12-18T04:42:17;16.00;;;8.07;;
36745;SDS011;22715;52.182;21.206;2022-12-18T04:44:43;13.35;;;6.32;;
36745;SDS011;22715;52.182;21.206;2022-12-18T04:47:08;15.00;;;7.03;;
36745;SDS011;22715;52.182;21.206;2022-12-18T04:49:33;12.68;;;7.63;;
36745;SDS011;22715;52.182;21.206;2022-12-18T04:51:59;14.32;;;6.78;;
36745;SDS011;22715;52.182;21.206;2022-12-18T04:54:25;15.38;;;6.82;;
36745;SDS011;22715;52.182;21.206;2022-12-18T04:56:50;17.70;;;9.15;;
36745;SDS011;22715;52.182;21.206;2022-12-18T04:59:16;16.90;;;7.78;;
36745;SDS011;22715;52.182;21.206;2022-12-18T05:01:42;12.07;;;6.88;;
36745;SDS011;22715;52.182;21.206;2022-12-18T05:04:07;12.05;;;6.25;;
36745;SDS011;22715;52.182;21.206;2022-12-18T05:06:33;12.30;;;6.63;;
36745;SDS011;22715;52.182;21.206;2022-12-18T05:08:58;12.35;;;6.97;;
36745;SDS011;22715;52.182;21.206;2022-12-18T05:11:24;16.75;;;6.85;;
36745;SDS011;22715;52.182;21.206;2022-12-18T05:13:55;12.20;;;6.00;;
36745;SDS011;22715;52.182;21.206;2022-12-18T05:16:20;15.93;;;6.82;;
36745;SDS011;22715;52.182;21.206;2022-12-18T05:18:45;15.93;;;8.82;;
36745;SDS011;22715;52.182;21.206;2022-12-18T05:21:14;13.75;;;7.28;;
36745;SDS011;22715;52.182;21.206;2022-12-18T05:23:39;15.25;;;6.22;;
36745;SDS011;22715;52.182;21.206;2022-12-18T05:26:05;9.82;;;4.82;;
36745;SDS011;22715;52.182;21.206;2022-12-18T05:28:31;12.85;;;6.72;;
36745;SDS011;22715;52.182;21.206;2022-12-18T05:30:58;11.57;;;6.82;;
36745;SDS011;22715;52.182;21.206;2022-12-18T05:33:24;12.88;;;6.97;;
36745;SDS011;22715;52.182;21.206;2022-12-18T05:35:50;12.00;;;6.57;;
36745;SDS011;22715;52.182;21.206;2022-12-18T05:38:16;12.55;;;7.45;;
36745;SDS011;22715;52.182;21.206;2022-12-18T05:40:42;11.82;;;6.53;;
36745;SDS011;22715;52.182;21.206;2022-12-18T05:43:08;15.25;;;5.95;;
36745;SDS011;22715;52.182;21.206;2022-12-18T05:45:36;15.82;;;7.05;;
36745;SDS011;22715;52.182;21.206;2022-12-18T05:48:02;13.52;;;6.15;;
36745;SDS011;22715;52.182;21.206;2022-12-18T05:50:27;10.02;;;4.95;;
36745;SDS011;22715;52.182;21.206;2022-12-18T05:52:52;14.25;;;7.45;;
36745;SDS011;22715;52.182;21.206;2022-12-18T05:55:21;17.60;;;6.40;;
36745;SDS011;22715;52.182;21.206;2022-12-18T05:57:49;13.65;;;5.65;;
36745;SDS011;22715;52.182;21.206;2022-12-18T06:02:46;16.67;;;7.32;;
36745;SDS011;22715;52.182;21.206;2022-12-18T06:05:11;13.70;;;7.05;;
36745;SDS011;22715;52.182;21.206;2022-12-18T06:07:36;13.23;;;6.38;;
36745;SDS011;22715;52.182;21.206;2022-12-18T06:10:02;14.15;;;8.68;;
36745;SDS011;22715;52.182;21.206;2022-12-18T06:12:27;17.10;;;7.28;;
36745;SDS011;22715;52.182;21.206;2022-12-18T06:14:52;11.82;;;6.30;;
36745;SDS011;22715;52.182;21.206;2022-12-18T06:17:18;12.30;;;6.05;;
36745;SDS011;22715;52.182;21.206;2022-12-18T06:19:43;13.13;;;7.95;;
36745;SDS011;22715;52.182;21.206;2022-12-18T06:22:09;13.82;;;6.20;;
36745;SDS011;22715;52.182;21.206;2022-12-18T06:24:34;15.52;;;7.65;;
36745;SDS011;22715;52.182;21.206;2022-12-18T06:26:59;13.90;;;7.88;;
36745;SDS011;22715;52.182;21.206;2022-12-18T06:29:25;10.10;;;7.32;;
36745;SDS011;22715;52.182;21.206;2022-12-18T06:31:50;16.58;;;8.02;;
36745;SDS011;22715;52.182;21.206;2022-12-18T06:34:16;14.07;;;7.28;;
36745;SDS011;22715;52.182;21.206;2022-12-18T06:36:49;12.43;;;7.20;;
36745;SDS011;22715;52.182;21.206;2022-12-18T06:39:14;16.42;;;7.68;;
36745;SDS011;22715;52.182;21.206;2022-12-18T06:41:40;17.98;;;8.02;;
36745;SDS011;22715;52.182;21.206;2022-12-18T06:44:05;14.85;;;8.50;;
36745;SDS011;22715;52.182;21.206;2022-12-18T06:46:31;12.40;;;7.57;;
36745;SDS011;22715;52.182;21.206;2022-12-18T06:48:57;16.60;;;8.38;;
36745;SDS011;22715;52.182;21.206;2022-12-18T06:51:22;14.30;;;7.60;;
36745;SDS011;22715;52.182;21.206;2022-12-18T06:53:48;19.20;;;8.52;;
36745;SDS011;22715;52.182;21.206;2022-12-18T06:56:14;14.00;;;9.20;;
36745;SDS011;22715;52.182;21.206;2022-12-18T06:58:46;15.10;;;7.63;;
36745;SDS011;22715;52.182;21.206;2022-12-18T07:01:12;18.48;;;7.30;;
36745;SDS011;22715;52.182;21.206;2022-12-18T07:03:38;17.35;;;8.65;;
36745;SDS011;22715;52.182;21.206;2022-12-18T07:06:03;16.77;;;8.18;;
36745;SDS011;22715;52.182;21.206;2022-12-18T07:08:30;15.43;;;7.68;;
36745;SDS011;22715;52.182;21.206;2022-12-18T07:10:55;21.80;;;8.93;;
36745;SDS011;22715;52.182;21.206;2022-12-18T07:13:21;20.98;;;10.07;;
36745;SDS011;22715;52.182;21.206;2022-12-18T07:15:46;16.75;;;8.02;;
36745;SDS011;22715;52.182;21.206;2022-12-18T07:18:21;13.43;;;8.88;;
36745;SDS011;22715;52.182;21.206;2022-12-18T07:20:48;19.15;;;7.93;;
36745;SDS011;22715;52.182;21.206;2022-12-18T07:23:14;14.85;;;8.15;;
36745;SDS011;22715;52.182;21.206;2022-12-18T07:25:39;15.35;;;8.43;;
36745;SDS011;22715;52.182;21.206;2022-12-18T07:28:04;21.98;;;10.70;;
36745;SDS011;22715;52.182;21.206;2022-12-18T07:30:31;24.67;;;9.43;;
36745;SDS011;22715;52.182;21.206;2022-12-18T07:32:56;27.13;;;10.52;;
36745;SDS011;22715;52.182;21.206;2022-12-18T07:35:21;16.35;;;8.60;;
36745;SDS011;22715;52.182;21.206;2022-12-18T07:37:47;22.05;;;8.95;;
36745;SDS011;22715;52.182;21.206;2022-12-18T07:40:12;20.75;;;10.55;;
36745;SDS011;22715;52.182;21.206;2022-12-18T07:42:37;24.20;;;10.20;;
36745;SDS011;22715;52.182;21.206;2022-12-18T07:45:05;26.27;;;13.80;;
36745;SDS011;22715;52.182;21.206;2022-12-18T07:47:31;22.45;;;10.57;;
36745;SDS011;22715;52.182;21.206;2022-12-18T07:49:58;24.25;;;11.70;;
36745;SDS011;22715;52.182;21.206;2022-12-18T07:52:24;24.27;;;11.95;;
36745;SDS011;22715;52.182;21.206;2022-12-18T07:54:49;18.13;;;10.85;;
36745;SDS011;22715;52.182;21.206;2022-12-18T07:57:15;24.63;;;11.93;;
36745;SDS011;22715;52.182;21.206;2022-12-18T07:59:44;23.88;;;10.55;;
36745;SDS011;22715;52.182;21.206;2022-12-18T08:02:09;24.70;;;11.23;;
36745;SDS011;22715;52.182;21.206;2022-12-18T08:04:35;23.80;;;13.23;;
36745;SDS011;22715;52.182;21.206;2022-12-18T08:07:01;33.05;;;12.20;;
36745;SDS011;22715;52.182;21.206;2022-12-18T08:09:27;26.83;;;12.15;;
36745;SDS011;22715;52.182;21.206;2022-12-18T08:11:52;20.60;;;11.82;;
36745;SDS011;22715;52.182;21.206;2022-12-18T08:14:17;30.30;;;13.30;;
36745;SDS011;22715;52.182;21.206;2022-12-18T08:16:43;26.58;;;13.27;;
36745;SDS011;22715;52.182;21.206;2022-12-18T08:19:09;29.02;;;14.57;;
36745;SDS011;22715;52.182;21.206;2022-12-18T08:21:35;24.60;;;13.60;;
36745;SDS011;22715;52.182;21.206;2022-12-18T08:24:00;27.98;;;12.13;;
36745;SDS011;22715;52.182;21.206;2022-12-18T08:26:27;26.55;;;12.40;;
36745;SDS011;22715;52.182;21.206;2022-12-18T08:28:53;29.98;;;13.10;;
36745;SDS011;22715;52.182;21.206;2022-12-18T08:31:19;31.52;;;14.07;;
36745;SDS011;22715;52.182;21.206;2022-12-18T08:33:44;27.35;;;14.23;;
36745;SDS011;22715;52.182;21.206;2022-12-18T09:06:49;30.38;;;15.27;;
36745;SDS011;22715;52.182;21.206;2022-12-18T09:12:12;30.25;;;14.57;;
36745;SDS011;22715;52.182;21.206;2022-12-18T09:14:38;30.38;;;15.07;;
36745;SDS011;22715;52.182;21.206;2022-12-18T09:17:03;25.98;;;14.25;;
36745;SDS011;22715;52.182;21.206;2022-12-18T09:19:28;35.30;;;15.02;;
36745;SDS011;22715;52.182;21.206;2022-12-18T09:21:54;40.03;;;15.60;;
36745;SDS011;22715;52.182;21.206;2022-12-18T09:24:19;28.20;;;13.73;;
36745;SDS011;22715;52.182;21.206;2022-12-18T09:26:44;36.70;;;14.80;;
36745;SDS011;22715;52.182;21.206;2022-12-18T09:29:10;23.73;;;12.20;;
36745;SDS011;22715;52.182;21.206;2022-12-18T09:31:35;34.67;;;13.80;;
36745;SDS011;22715;52.182;21.206;2022-12-18T09:34:01;36.47;;;14.95;;
36745;SDS011;22715;52.182;21.206;2022-12-18T09:36:26;32.65;;;14.23;;
36745;SDS011;22715;52.182;21.206;2022-12-18T09:38:51;36.05;;;16.85;;
36745;SDS011;22715;52.182;21.206;2022-12-18T09:43:45;46.78;;;20.08;;
36745;SDS011;22715;52.182;21.206;2022-12-18T09:46:17;35.95;;;19.15;;
36745;SDS011;22715;52.182;21.206;2022-12-18T09:48:44;36.28;;;15.95;;
36745;SDS011;22715;52.182;21.206;2022-12-18T09:51:18;29.33;;;13.25;;
36745;SDS011;22715;52.182;21.206;2022-12-18T09:53:46;31.30;;;13.82;;
36745;SDS011;22715;52.182;21.206;2022-12-18T09:56:15;30.52;;;13.88;;
36745;SDS011;22715;52.182;21.206;2022-12-18T10:01:21;33.17;;;15.05;;
36745;SDS011;22715;52.182;21.206;2022-12-18T10:03:46;29.90;;;15.63;;
36745;SDS011;22715;52.182;21.206;2022-12-18T10:13:42;32.88;;;15.10;;
36745;SDS011;22715;52.182;21.206;2022-12-18T10:21:10;30.20;;;12.40;;
36745;SDS011;22715;52.182;21.206;2022-12-18T10:26:27;34.10;;;14.65;;
36745;SDS011;22715;52.182;21.206;2022-12-18T10:28:52;34.47;;;15.75;;
36745;SDS011;22715;52.182;21.206;2022-12-18T10:31:19;27.73;;;15.63;;
36745;SDS011;22715;52.182;21.206;2022-12-18T10:33:46;31.92;;;14.68;;
36745;SDS011;22715;52.182;21.206;2022-12-18T10:36:14;29.48;;;14.35;;
36745;SDS011;22715;52.182;21.206;2022-12-18T10:38:40;29.65;;;14.18;;
36745;SDS011;22715;52.182;21.206;2022-12-18T10:43:43;25.33;;;12.13;;
36745;SDS011;22715;52.182;21.206;2022-12-18T10:51:18;34.58;;;13.68;;
36745;SDS011;22715;52.182;21.206;2022-12-18T10:53:47;44.08;;;16.95;;
36745;SDS011;22715;52.182;21.206;2022-12-18T10:56:18;28.77;;;15.90;;
36745;SDS011;22715;52.182;21.206;2022-12-18T10:58:44;32.85;;;15.18;;
36745;SDS011;22715;52.182;21.206;2022-12-18T11:01:21;35.20;;;16.70;;
36745;SDS011;22715;52.182;21.206;2022-12-18T11:06:16;37.78;;;17.38;;
36745;SDS011;22715;52.182;21.206;2022-12-18T11:08:42;28.17;;;15.60;;
36745;SDS011;22715;52.182;21.206;2022-12-18T11:11:22;33.50;;;16.92;;
36745;SDS011;22715;52.182;21.206;2022-12-18T11:13:55;32.78;;;17.83;;
36745;SDS011;22715;52.182;21.206;2022-12-18T11:16:23;31.55;;;15.43;;
36745;SDS011;22715;52.182;21.206;2022-12-18T11:18:48;34.45;;;15.43;;
36745;SDS011;22715;52.182;21.206;2022-12-18T11:21:14;40.58;;;20.30;;
36745;SDS011;22715;52.182;21.206;2022-12-18T11:23:49;31.45;;;15.90;;
36745;SDS011;22715;52.182;21.206;2022-12-18T11:26:14;31.75;;;17.52;;
36745;SDS011;22715;52.182;21.206;2022-12-18T11:28:41;42.67;;;19.08;;
36745;SDS011;22715;52.182;21.206;2022-12-18T11:33:47;33.63;;;17.00;;
36745;SDS011;22715;52.182;21.206;2022-12-18T11:36:14;37.55;;;17.00;;
36745;SDS011;22715;52.182;21.206;2022-12-18T11:38:39;36.58;;;16.42;;
36745;SDS011;22715;52.182;21.206;2022-12-18T11:43:48;34.85;;;17.52;;
36745;SDS011;22715;52.182;21.206;2022-12-18T11:49:08;34.70;;;17.08;;
36745;SDS011;22715;52.182;21.206;2022-12-18T11:51:41;34.35;;;17.80;;
36745;SDS011;22715;52.182;21.206;2022-12-18T11:54:12;33.88;;;16.90;;
36745;SDS011;22715;52.182;21.206;2022-12-18T11:56:58;37.88;;;19.75;;
36745;SDS011;22715;52.182;21.206;2022-12-18T12:01:58;40.25;;;19.08;;
36745;SDS011;22715;52.182;21.206;2022-12-18T12:14:39;30.45;;;15.10;;
36745;SDS011;22715;52.182;21.206;2022-12-18T12:25:06;34.88;;;19.85;;
36745;SDS011;22715;52.182;21.206;2022-12-18T12:27:34;43.55;;;21.30;;
36745;SDS011;22715;52.182;21.206;2022-12-18T12:30:21;42.30;;;18.95;;
36745;SDS011;22715;52.182;21.206;2022-12-18T12:32:50;35.65;;;18.65;;
36745;SDS011;22715;52.182;21.206;2022-12-18T13:09:29;43.30;;;18.45;;
36745;SDS011;22715;52.182;21.206;2022-12-18T13:11:57;42.72;;;21.15;;
36745;SDS011;22715;52.182;21.206;2022-12-18T13:14:52;42.03;;;17.97;;
36745;SDS011;22715;52.182;21.206;2022-12-18T13:22:38;40.78;;;18.27;;
36745;SDS011;22715;52.182;21.206;2022-12-18T13:25:26;33.38;;;16.17;;
36745;SDS011;22715;52.182;21.206;2022-12-18T13:27:57;39.47;;;17.75;;
36745;SDS011;22715;52.182;21.206;2022-12-18T13:43:47;37.10;;;16.92;;
36745;SDS011;22715;52.182;21.206;2022-12-18T13:46:23;36.00;;;18.05;;
36745;SDS011;22715;52.182;21.206;2022-12-18T13:51:21;36.72;;;17.00;;
36745;SDS011;22715;52.182;21.206;2022-12-18T13:53:48;33.55;;;14.73;;
36745;SDS011;22715;52.182;21.206;2022-12-18T13:56:15;36.38;;;17.98;;
36745;SDS011;22715;52.182;21.206;2022-12-18T13:58:40;43.17;;;16.98;;
36745;SDS011;22715;52.182;21.206;2022-12-18T14:01:20;35.92;;;17.30;;
36745;SDS011;22715;52.182;21.206;2022-12-18T14:21:59;26.83;;;12.05;;
36745;SDS011;22715;52.182;21.206;2022-12-18T14:24:25;29.50;;;14.65;;
36745;SDS011;22715;52.182;21.206;2022-12-18T14:26:51;32.30;;;15.27;;
36745;SDS011;22715;52.182;21.206;2022-12-18T14:32:21;28.67;;;14.07;;
36745;SDS011;22715;52.182;21.206;2022-12-18T14:34:52;31.63;;;16.10;;
36745;SDS011;22715;52.182;21.206;2022-12-18T14:37:23;39.22;;;18.58;;
36745;SDS011;22715;52.182;21.206;2022-12-18T14:40:11;39.97;;;16.02;;
36745;SDS011;22715;52.182;21.206;2022-12-18T14:42:36;36.83;;;15.70;;
36745;SDS011;22715;52.182;21.206;2022-12-18T14:47:47;29.10;;;15.05;;
36745;SDS011;22715;52.182;21.206;2022-12-18T14:50:13;39.40;;;16.65;;
36745;SDS011;22715;52.182;21.206;2022-12-18T14:52:39;25.35;;;13.95;;
36745;SDS011;22715;52.182;21.206;2022-12-18T14:55:19;45.63;;;16.02;;
36745;SDS011;22715;52.182;21.206;2022-12-18T14:57:45;34.22;;;17.17;;
36745;SDS011;22715;52.182;21.206;2022-12-18T15:00:24;30.55;;;16.48;;
36745;SDS011;22715;52.182;21.206;2022-12-18T15:02:56;37.60;;;16.65;;
36745;SDS011;22715;52.182;21.206;2022-12-18T15:05:28;31.23;;;13.95;;
36745;SDS011;22715;52.182;21.206;2022-12-18T15:07:56;40.88;;;16.67;;
36745;SDS011;22715;52.182;21.206;2022-12-18T15:10:25;34.78;;;17.63;;
36745;SDS011;22715;52.182;21.206;2022-12-18T15:15:44;42.80;;;17.67;;
36745;SDS011;22715;52.182;21.206;2022-12-18T15:18:18;28.20;;;15.52;;
36745;SDS011;22715;52.182;21.206;2022-12-18T15:26:13;25.55;;;14.50;;
36745;SDS011;22715;52.182;21.206;2022-12-18T15:28:49;33.63;;;16.80;;
36745;SDS011;22715;52.182;21.206;2022-12-18T15:31:31;32.22;;;16.30;;
36745;SDS011;22715;52.182;21.206;2022-12-18T15:36:32;30.88;;;14.30;;
36745;SDS011;22715;52.182;21.206;2022-12-18T15:39:01;37.25;;;16.63;;
36745;SDS011;22715;52.182;21.206;2022-12-18T15:41:27;41.17;;;15.60;;
36745;SDS011;22715;52.182;21.206;2022-12-18T15:43:54;34.38;;;16.05;;
36745;SDS011;22715;52.182;21.206;2022-12-18T15:46:27;33.08;;;15.68;;
36745;SDS011;22715;52.182;21.206;2022-12-18T15:48:53;30.95;;;15.18;;
36745;SDS011;22715;52.182;21.206;2022-12-18T15:54:09;28.42;;;14.50;;
36745;SDS011;22715;52.182;21.206;2022-12-18T15:56:38;35.95;;;17.85;;
36745;SDS011;22715;52.182;21.206;2022-12-18T15:59:22;38.15;;;16.40;;
36745;SDS011;22715;52.182;21.206;2022-12-18T16:01:50;30.58;;;15.43;;
36745;SDS011;22715;52.182;21.206;2022-12-18T16:04:17;41.63;;;19.20;;
36745;SDS011;22715;52.182;21.206;2022-12-18T16:06:45;35.75;;;17.85;;
36745;SDS011;22715;52.182;21.206;2022-12-18T16:09:11;34.58;;;17.02;;
36745;SDS011;22715;52.182;21.206;2022-12-18T16:11:43;39.85;;;17.00;;
36745;SDS011;22715;52.182;21.206;2022-12-18T16:14:25;36.58;;;15.52;;
36745;SDS011;22715;52.182;21.206;2022-12-18T16:16:58;32.95;;;15.50;;
36745;SDS011;22715;52.182;21.206;2022-12-18T16:19:24;35.33;;;15.25;;
36745;SDS011;22715;52.182;21.206;2022-12-18T16:24:41;33.40;;;14.27;;
36745;SDS011;22715;52.182;21.206;2022-12-18T16:27:08;33.85;;;14.50;;
36745;SDS011;22715;52.182;21.206;2022-12-18T16:29:33;35.50;;;15.63;;
36745;SDS011;22715;52.182;21.206;2022-12-18T16:34:30;32.80;;;15.68;;
36745;SDS011;22715;52.182;21.206;2022-12-18T16:36:55;31.52;;;14.20;;
36745;SDS011;22715;52.182;21.206;2022-12-18T16:39:21;29.38;;;14.50;;
36745;SDS011;22715;52.182;21.206;2022-12-18T16:41:52;33.47;;;16.48;;
36745;SDS011;22715;52.182;21.206;2022-12-18T16:44:27;37.30;;;17.45;;
36745;SDS011;22715;52.182;21.206;2022-12-18T16:46:52;33.97;;;17.35;;
36745;SDS011;22715;52.182;21.206;2022-12-18T16:49:22;31.45;;;15.18;;
36745;SDS011;22715;52.182;21.206;2022-12-18T16:52:04;23.63;;;14.07;;
36745;SDS011;22715;52.182;21.206;2022-12-18T16:54:30;26.70;;;12.48;;
36745;SDS011;22715;52.182;21.206;2022-12-18T16:56:56;28.50;;;15.43;;
36745;SDS011;22715;52.182;21.206;2022-12-18T16:59:22;30.50;;;14.48;;
36745;SDS011;22715;52.182;21.206;2022-12-18T17:01:47;36.70;;;15.70;;
36745;SDS011;22715;52.182;21.206;2022-12-18T17:04:13;38.53;;;15.40;;
36745;SDS011;22715;52.182;21.206;2022-12-18T17:06:39;34.17;;;17.13;;
36745;SDS011;22715;52.182;21.206;2022-12-18T17:09:06;37.85;;;15.93;;
36745;SDS011;22715;52.182;21.206;2022-12-18T17:11:34;37.75;;;17.73;;
36745;SDS011;22715;52.182;21.206;2022-12-18T17:14:04;41.88;;;17.40;;
36745;SDS011;22715;52.182;21.206;2022-12-18T17:16:29;29.77;;;17.02;;
36745;SDS011;22715;52.182;21.206;2022-12-18T17:18:55;29.08;;;15.13;;
36745;SDS011;22715;52.182;21.206;2022-12-18T17:21:20;25.27;;;14.65;;
36745;SDS011;22715;52.182;21.206;2022-12-18T17:23:45;27.80;;;13.30;;
36745;SDS011;22715;52.182;21.206;2022-12-18T17:26:11;24.98;;;12.88;;
36745;SDS011;22715;52.182;21.206;2022-12-18T17:28:37;24.20;;;13.65;;
36745;SDS011;22715;52.182;21.206;2022-12-18T17:31:11;21.30;;;11.30;;
36745;SDS011;22715;52.182;21.206;2022-12-18T17:33:36;33.70;;;15.77;;
36745;SDS011;22715;52.182;21.206;2022-12-18T17:36:02;22.00;;;11.57;;
36745;SDS011;22715;52.182;21.206;2022-12-18T17:38:27;35.05;;;14.07;;
36745;SDS011;22715;52.182;21.206;2022-12-18T17:40:52;31.98;;;15.52;;
36745;SDS011;22715;52.182;21.206;2022-12-18T17:45:54;27.88;;;13.23;;
36745;SDS011;22715;52.182;21.206;2022-12-18T17:48:27;34.55;;;15.68;;
36745;SDS011;22715;52.182;21.206;2022-12-18T17:50:52;31.08;;;13.02;;
36745;SDS011;22715;52.182;21.206;2022-12-18T17:53:18;29.23;;;15.07;;
36745;SDS011;22715;52.182;21.206;2022-12-18T17:55:55;34.40;;;16.05;;
36745;SDS011;22715;52.182;21.206;2022-12-18T17:58:21;25.10;;;14.20;;
36745;SDS011;22715;52.182;21.206;2022-12-18T18:00:57;30.90;;;13.70;;
36745;SDS011;22715;52.182;21.206;2022-12-18T18:03:22;27.70;;;13.90;;